createdAt,value
2022-10-14T00:01:32.906Z,17.33
2022-10-14T00:04:00.125Z,17.32
2022-10-14T00:06:29.882Z,17.31
2022-10-14T00:08:59.960Z,17.30
2022-10-14T00:11:29.933Z,17.30
2022-10-14T00:13:59.516Z,17.31
2022-10-14T00:16:29.212Z,17.31
2022-10-14T00:18:57.714Z,17.31
2022-10-14T00:21:24.807Z,17.32
2022-10-14T00:23:51.666Z,17.31
2022-10-14T00:26:24.297Z,17.31
2022-10-14T00:28:51.749Z,17.32
2022-10-14T00:31:18.890Z,17.31
2022-10-14T00:33:46.021Z,17.32
2022-10-14T00:36:14.747Z,17.33
2022-10-14T00:38:41.719Z,17.31
2022-10-14T00:41:11.607Z,17.32
2022-10-14T00:43:58.692Z,17.31
2022-10-14T00:46:27.645Z,17.31
2022-10-14T00:48:54.645Z,17.31
2022-10-14T00:51:21.542Z,17.31
2022-10-14T00:53:48.241Z,17.31
2022-10-14T00:56:17.886Z,17.32
2022-10-14T00:58:45.612Z,17.32
2022-10-14T01:01:12.417Z,17.33
2022-10-14T01:03:39.985Z,17.33
2022-10-14T01:06:14.280Z,17.34
2022-10-14T01:09:00.971Z,17.35
2022-10-14T01:11:41.085Z,17.33
2022-10-14T01:14:20.531Z,17.35
2022-10-14T01:16:56.744Z,17.34
2022-10-14T01:19:48.861Z,17.33
2022-10-14T01:22:39.200Z,17.34
2022-10-14T01:25:14.345Z,17.35
2022-10-14T01:28:05.825Z,17.34
2022-10-14T01:30:42.091Z,17.33
2022-10-14T01:33:16.648Z,17.33
2022-10-14T01:35:49.261Z,17.31
2022-10-14T01:38:25.155Z,17.28
2022-10-14T01:41:18.247Z,17.26
2022-10-14T01:43:46.794Z,17.25
2022-10-14T01:46:13.630Z,17.24
2022-10-14T01:48:44.960Z,17.22
2022-10-14T01:51:15.687Z,17.22
2022-10-14T01:53:44.202Z,17.22
2022-10-14T01:56:11.691Z,17.23
2022-10-14T01:58:39.353Z,17.22
2022-10-14T02:01:08.420Z,17.23
2022-10-14T02:03:40.011Z,17.23
2022-10-14T02:06:11.873Z,17.21
2022-10-14T02:08:49.211Z,17.22
2022-10-14T02:11:18.143Z,17.22
2022-10-14T02:13:58.330Z,17.22
2022-10-14T02:16:37.862Z,17.22
2022-10-14T02:19:20.045Z,17.23
2022-10-14T02:21:52.515Z,17.25
2022-10-14T02:24:30.129Z,17.27
2022-10-14T02:27:03.053Z,17.27
2022-10-14T02:29:30.639Z,17.28
2022-10-14T02:31:58.677Z,17.28
2022-10-14T02:34:25.893Z,17.28
2022-10-14T02:36:53.385Z,17.30
2022-10-14T02:39:30.568Z,17.32
2022-10-14T02:41:57.490Z,17.32
2022-10-14T02:44:24.333Z,17.33
2022-10-14T02:46:51.050Z,17.32
2022-10-14T02:49:17.802Z,17.36
2022-10-14T02:51:44.510Z,17.35
2022-10-14T02:54:11.393Z,17.36
2022-10-14T02:56:38.106Z,17.36
2022-10-14T02:59:05.136Z,17.37
2022-10-14T03:01:36.569Z,17.38
2022-10-14T03:04:04.343Z,17.39
2022-10-14T03:06:31.054Z,17.41
2022-10-14T03:08:57.748Z,17.41
2022-10-14T03:11:24.446Z,17.42
2022-10-14T03:13:51.173Z,17.42
2022-10-14T03:16:17.879Z,17.42
2022-10-14T03:18:44.590Z,17.44
2022-10-14T03:21:11.330Z,17.44
2022-10-14T03:23:38.052Z,17.44
2022-10-14T03:26:04.768Z,17.44
2022-10-14T03:28:31.557Z,17.45
2022-10-14T03:30:58.263Z,17.46
2022-10-14T03:33:26.128Z,17.45
2022-10-14T03:35:53.442Z,17.47
2022-10-14T03:38:20.272Z,17.47
2022-10-14T03:40:46.972Z,17.48
2022-10-14T03:43:13.691Z,17.48
2022-10-14T03:45:40.409Z,17.47
2022-10-14T03:48:07.115Z,17.47
2022-10-14T03:50:33.855Z,17.47
2022-10-14T03:53:00.582Z,17.47
2022-10-14T03:55:27.465Z,17.47
2022-10-14T03:57:54.172Z,17.48
2022-10-14T04:00:20.974Z,17.45
2022-10-14T04:02:47.671Z,17.46
2022-10-14T04:05:14.507Z,17.45
2022-10-14T04:07:41.256Z,17.44
2022-10-14T04:10:08.495Z,17.44
2022-10-14T04:12:35.183Z,17.44
2022-10-14T04:15:01.913Z,17.44
2022-10-14T04:17:28.677Z,17.44
2022-10-14T04:19:55.395Z,17.42
2022-10-14T04:22:23.362Z,17.43
2022-10-14T04:24:50.667Z,17.44
2022-10-14T04:27:17.882Z,17.43
2022-10-14T04:29:44.576Z,17.42
2022-10-14T04:32:11.257Z,17.42
2022-10-14T04:34:37.988Z,17.40
2022-10-14T04:37:04.704Z,17.41
2022-10-14T04:39:31.414Z,17.39
2022-10-14T04:41:58.128Z,17.39
2022-10-14T04:44:24.931Z,17.40
2022-10-14T04:46:51.646Z,17.41
2022-10-14T04:49:18.430Z,17.41
2022-10-14T04:51:45.151Z,17.42
2022-10-14T04:54:11.865Z,17.44
2022-10-14T04:56:38.702Z,17.43
2022-10-14T04:59:06.137Z,17.44
2022-10-14T05:01:34.161Z,17.45
2022-10-14T05:04:01.081Z,17.45
2022-10-14T05:06:27.788Z,17.43
2022-10-14T05:08:54.493Z,17.43
2022-10-14T05:11:21.215Z,17.39
2022-10-14T05:13:48.069Z,17.37
2022-10-14T05:16:14.865Z,17.32
2022-10-14T05:18:41.566Z,17.28
2022-10-14T05:21:08.411Z,17.26
2022-10-14T05:23:35.320Z,17.23
2022-10-14T05:26:02.121Z,17.20
2022-10-14T05:28:28.971Z,17.15
2022-10-14T05:30:55.743Z,17.11
2022-10-14T05:33:25.324Z,17.09
2022-10-14T05:35:58.985Z,17.06
2022-10-14T05:38:26.130Z,17.04
2022-10-14T05:40:54.234Z,17.01
2022-10-14T05:43:21.271Z,17.01
2022-10-14T05:45:47.978Z,17.00
2022-10-14T05:48:14.697Z,17.00
2022-10-14T05:50:42.291Z,17.01
2022-10-14T05:53:10.200Z,17.04
2022-10-14T05:55:37.040Z,17.06
2022-10-14T05:58:04.068Z,17.07
2022-10-14T06:00:30.818Z,17.11
2022-10-14T06:02:58.684Z,17.13
2022-10-14T06:05:25.913Z,17.14
2022-10-14T06:07:52.640Z,17.16
2022-10-14T06:10:19.341Z,17.18
2022-10-14T06:12:46.054Z,17.18
2022-10-14T06:15:12.791Z,17.18
2022-10-14T06:17:39.509Z,17.18
2022-10-14T06:20:06.612Z,17.15
2022-10-14T06:22:33.289Z,17.14
2022-10-14T06:25:03.946Z,17.13
2022-10-14T06:27:31.313Z,17.12
2022-10-14T06:29:58.060Z,17.13
2022-10-14T06:32:25.043Z,17.12
2022-10-14T06:34:51.891Z,17.10
2022-10-14T06:37:18.581Z,17.09
2022-10-14T06:39:45.346Z,17.10
2022-10-14T06:42:13.233Z,17.12
2022-10-14T06:44:47.621Z,17.14
2022-10-14T06:47:14.353Z,17.18
2022-10-14T06:49:41.049Z,17.22
2022-10-14T06:52:07.788Z,17.27
2022-10-14T06:54:38.894Z,17.33
2022-10-14T06:57:06.328Z,17.39
2022-10-14T06:59:33.016Z,17.45
2022-10-14T07:01:59.789Z,17.52
2022-10-14T07:04:26.673Z,17.58
2022-10-14T07:06:53.383Z,17.61
2022-10-14T07:09:20.151Z,17.67
2022-10-14T07:11:46.893Z,17.73
2022-10-14T07:14:13.591Z,17.76
2022-10-14T07:16:43.255Z,17.80
2022-10-14T07:19:09.985Z,17.83
2022-10-14T07:21:36.677Z,17.87
2022-10-14T07:24:03.554Z,17.89
2022-10-14T07:26:31.339Z,17.95
2022-10-14T07:28:58.493Z,18.01
2022-10-14T07:31:26.137Z,18.06
2022-10-14T07:33:52.876Z,18.10
2022-10-14T07:36:22.398Z,18.14
2022-10-14T07:38:49.893Z,18.19
2022-10-14T07:41:19.415Z,18.20
2022-10-14T07:43:47.962Z,18.24
2022-10-14T07:46:16.531Z,18.25
2022-10-14T07:48:56.792Z,18.25
2022-10-14T07:51:24.647Z,18.29
2022-10-14T07:53:52.839Z,18.34
2022-10-14T07:56:19.942Z,18.38
2022-10-14T07:58:46.708Z,18.42
2022-10-14T08:01:15.527Z,18.45
2022-10-14T08:03:43.456Z,18.45
2022-10-14T08:06:10.520Z,18.47
2022-10-14T08:08:37.809Z,18.47
2022-10-14T08:11:08.057Z,18.48
2022-10-14T08:13:35.277Z,18.50
2022-10-14T08:16:02.201Z,18.55
2022-10-14T08:18:29.344Z,18.59
2022-10-14T08:20:56.053Z,18.63
2022-10-14T08:23:22.827Z,18.67
2022-10-14T08:25:49.975Z,18.67
2022-10-14T08:28:16.772Z,18.67
2022-10-14T08:30:43.540Z,18.66
2022-10-14T08:33:10.250Z,18.67
2022-10-14T08:35:36.958Z,18.68
2022-10-14T08:38:03.698Z,18.75
2022-10-14T08:40:36.490Z,18.83
2022-10-14T08:43:22.418Z,18.90
2022-10-14T08:45:54.423Z,18.98
2022-10-14T08:48:23.546Z,19.03
2022-10-14T08:51:01.019Z,19.08
2022-10-14T08:53:30.561Z,19.11
2022-10-14T08:56:02.435Z,19.14
2022-10-14T08:58:32.229Z,19.19
2022-10-14T09:01:13.384Z,19.23
2022-10-14T09:03:41.998Z,19.28
2022-10-14T09:06:15.941Z,19.30
2022-10-14T09:08:45.941Z,19.33
2022-10-14T09:11:20.675Z,19.37
2022-10-14T09:13:49.848Z,19.41
2022-10-14T09:16:21.577Z,19.48
2022-10-14T09:19:01.742Z,19.56
2022-10-14T09:21:52.322Z,19.68
2022-10-14T09:24:32.953Z,19.75
2022-10-14T09:27:13.175Z,19.78
2022-10-14T09:29:43.666Z,19.84
2022-10-14T09:32:19.942Z,19.93
2022-10-14T09:34:49.599Z,20.00
2022-10-14T09:37:36.088Z,20.04
2022-10-14T09:40:08.736Z,20.06
2022-10-14T09:42:49.178Z,20.06
2022-10-14T09:45:18.604Z,20.08
2022-10-14T09:47:50.152Z,20.14
2022-10-14T09:50:30.026Z,20.19
2022-10-14T09:53:09.353Z,20.22
2022-10-14T09:55:48.149Z,20.25
2022-10-14T09:58:19.348Z,20.26
2022-10-14T10:00:46.581Z,20.29
2022-10-14T10:03:28.192Z,20.33
2022-10-14T10:06:23.298Z,20.36
2022-10-14T10:08:52.891Z,20.39
2022-10-14T10:11:37.281Z,20.39
2022-10-14T10:14:22.470Z,20.38
2022-10-14T10:17:09.770Z,20.35
2022-10-14T10:19:39.631Z,20.36
2022-10-14T10:22:38.702Z,20.37
2022-10-14T10:25:08.445Z,20.38
2022-10-14T10:27:37.445Z,20.39
2022-10-14T10:30:27.300Z,20.41
2022-10-14T10:33:24.513Z,20.41
2022-10-14T10:35:57.087Z,20.43
2022-10-14T10:38:55.369Z,20.47
2022-10-14T10:42:06.386Z,20.52
2022-10-14T10:44:55.187Z,20.59
2022-10-14T10:47:48.615Z,20.66
2022-10-14T10:50:33.834Z,20.74
2022-10-14T10:53:21.080Z,20.80
2022-10-14T10:56:04.634Z,20.85
2022-10-14T10:58:41.396Z,20.90
2022-10-14T11:01:20.561Z,20.98
2022-10-14T11:04:09.054Z,21.09
2022-10-14T11:07:02.568Z,21.16
2022-10-14T11:09:56.499Z,21.21
2022-10-14T11:12:30.807Z,21.21
2022-10-14T11:15:28.574Z,21.21
2022-10-14T11:18:05.429Z,21.21
2022-10-14T11:20:44.182Z,21.20
2022-10-14T11:23:39.345Z,21.21
2022-10-14T11:26:14.895Z,21.23
2022-10-14T11:29:19.527Z,21.24
2022-10-14T11:31:51.781Z,21.29
2022-10-14T11:34:30.713Z,21.33
2022-10-14T11:37:26.681Z,21.35
2022-10-14T11:39:58.835Z,21.35
2022-10-14T11:43:06.662Z,21.31
2022-10-14T11:45:44.362Z,21.30
2022-10-14T11:48:25.429Z,21.32
2022-10-14T11:51:05.409Z,21.34
2022-10-14T11:53:54.525Z,21.38
2022-10-14T11:56:48.113Z,21.42
2022-10-14T11:59:25.474Z,21.44
2022-10-14T12:01:58.303Z,21.44
2022-10-14T12:04:34.116Z,21.43
2022-10-14T12:07:05.316Z,21.46
2022-10-14T12:09:42.503Z,21.49
2022-10-14T12:12:15.486Z,21.53
2022-10-14T12:14:50.094Z,21.55
2022-10-14T12:17:34.385Z,21.54
2022-10-14T12:20:22.416Z,21.53
2022-10-14T12:22:50.057Z,21.51
2022-10-14T12:25:18.428Z,21.49
2022-10-14T12:27:45.330Z,21.47
2022-10-14T12:30:47.803Z,21.48
2022-10-14T12:33:22.358Z,21.52
2022-10-14T12:36:00.715Z,21.61
2022-10-14T12:38:29.021Z,21.70
2022-10-14T12:41:34.260Z,21.72
2022-10-14T12:44:03.371Z,21.69
2022-10-14T12:46:30.919Z,21.64
2022-10-14T12:48:57.676Z,21.59
2022-10-14T12:51:24.692Z,21.55
2022-10-14T12:54:14.432Z,21.48
2022-10-14T12:57:01.273Z,21.43
2022-10-14T12:59:36.832Z,21.40
2022-10-14T13:02:14.211Z,21.37
2022-10-14T13:04:48.573Z,21.34
2022-10-14T13:07:39.674Z,21.36
2022-10-14T13:10:36.013Z,21.35
2022-10-14T13:13:39.963Z,21.36
2022-10-14T13:16:07.706Z,21.35
2022-10-14T13:18:36.833Z,21.36
2022-10-14T13:21:07.544Z,21.36
2022-10-14T13:23:35.880Z,21.38
2022-10-14T13:26:27.221Z,21.39
2022-10-14T13:29:12.637Z,21.36
2022-10-14T13:31:56.521Z,21.35
2022-10-14T13:34:36.498Z,21.33
2022-10-14T13:37:21.253Z,21.31
2022-10-14T13:39:47.984Z,21.31
2022-10-14T13:42:24.355Z,21.31
2022-10-14T13:44:52.282Z,21.31
2022-10-14T13:47:21.440Z,21.31
2022-10-14T13:49:50.224Z,21.30
2022-10-14T13:52:21.567Z,21.29
2022-10-14T13:54:48.446Z,21.30
2022-10-14T13:57:47.764Z,21.29
2022-10-14T14:00:40.102Z,21.30
2022-10-14T14:03:22.255Z,21.28
2022-10-14T14:05:49.836Z,21.26
2022-10-14T14:08:38.687Z,21.26
2022-10-14T14:11:23.125Z,21.22
2022-10-14T14:14:01.480Z,21.20
2022-10-14T14:16:35.888Z,21.18
2022-10-14T14:19:08.273Z,21.16
2022-10-14T14:21:35.348Z,21.14
2022-10-14T14:24:11.212Z,21.13
2022-10-14T14:26:40.465Z,21.13
2022-10-14T14:29:18.125Z,21.12
2022-10-14T14:32:06.720Z,21.10
2022-10-14T14:34:34.709Z,21.10
2022-10-14T14:37:17.265Z,21.08
2022-10-14T14:40:02.886Z,21.07
2022-10-14T14:42:38.325Z,21.05
2022-10-14T14:45:25.624Z,21.05
2022-10-14T14:47:54.047Z,21.04
2022-10-14T14:50:31.468Z,21.02
2022-10-14T14:53:03.140Z,21.00
2022-10-14T14:55:37.562Z,21.00
2022-10-14T14:58:05.691Z,20.98
2022-10-14T15:00:32.650Z,20.95
2022-10-14T15:03:01.112Z,20.96
2022-10-14T15:05:28.132Z,20.93
2022-10-14T15:07:55.964Z,20.91
2022-10-14T15:10:26.180Z,20.89
2022-10-14T15:12:58.818Z,20.88
2022-10-14T15:15:33.213Z,20.87
2022-10-14T15:18:21.937Z,20.87
2022-10-14T15:20:49.368Z,20.84
2022-10-14T15:23:37.940Z,20.82
2022-10-14T15:26:21.656Z,20.80
2022-10-14T15:29:05.822Z,20.79
2022-10-14T15:31:32.637Z,20.77
2022-10-14T15:33:59.503Z,20.75
2022-10-14T15:36:28.494Z,20.74
2022-10-14T15:38:56.414Z,20.72
2022-10-14T15:41:23.145Z,20.69
2022-10-14T15:43:49.849Z,20.67
2022-10-14T15:46:35.576Z,20.66
2022-10-14T15:49:05.145Z,20.63
2022-10-14T15:51:31.865Z,20.62
2022-10-14T15:53:58.621Z,20.60
2022-10-14T15:56:25.328Z,20.58
2022-10-14T15:58:52.075Z,20.57
2022-10-14T16:01:21.256Z,20.55
2022-10-14T16:03:49.538Z,20.53
2022-10-14T16:06:16.973Z,20.54
2022-10-14T16:08:43.953Z,20.52
2022-10-14T16:11:25.814Z,20.50
2022-10-14T16:13:52.895Z,20.48
2022-10-14T16:16:27.093Z,20.47
2022-10-14T16:18:53.832Z,20.46
2022-10-14T16:21:20.531Z,20.43
2022-10-14T16:23:47.216Z,20.41
2022-10-14T16:26:14.354Z,20.41
2022-10-14T16:28:41.116Z,20.40
2022-10-14T16:31:12.082Z,20.39
2022-10-14T16:33:43.201Z,20.37
2022-10-14T16:36:15.971Z,20.34
2022-10-14T16:38:43.187Z,20.30
2022-10-14T16:41:10.822Z,20.29
2022-10-14T16:43:37.969Z,20.26
2022-10-14T16:46:05.450Z,20.24
2022-10-14T16:48:33.777Z,20.21
2022-10-14T16:51:00.471Z,20.18
2022-10-14T16:53:40.765Z,20.18
2022-10-14T16:56:32.305Z,20.15
2022-10-14T16:59:00.104Z,20.13
2022-10-14T17:01:27.250Z,20.11
2022-10-14T17:03:55.693Z,20.11
2022-10-14T17:06:24.251Z,20.07
2022-10-14T17:08:51.346Z,20.07
2022-10-14T17:11:18.272Z,20.04
2022-10-14T17:13:45.044Z,20.04
2022-10-14T17:16:12.067Z,20.03
2022-10-14T17:18:38.807Z,20.03
2022-10-14T17:21:08.298Z,20.03
2022-10-14T17:23:36.270Z,20.04
2022-10-14T17:26:04.162Z,20.04
2022-10-14T17:28:31.390Z,20.05
2022-10-14T17:30:58.665Z,20.05
2022-10-14T17:33:26.040Z,20.06
2022-10-14T17:36:00.229Z,20.05
2022-10-14T17:38:28.874Z,20.05
2022-10-14T17:41:22.597Z,20.04
2022-10-14T17:43:50.097Z,20.03
2022-10-14T17:46:20.561Z,20.01
2022-10-14T17:48:56.052Z,20.01
2022-10-14T17:51:25.027Z,19.98
2022-10-14T17:53:57.062Z,19.96
2022-10-14T17:56:25.734Z,19.93
2022-10-14T17:58:54.100Z,19.91
2022-10-14T18:01:36.677Z,19.89
2022-10-14T18:04:08.348Z,19.84
2022-10-14T18:06:36.948Z,19.80
2022-10-14T18:09:06.927Z,19.76
2022-10-14T18:11:56.067Z,19.72
2022-10-14T18:14:22.265Z,19.65
2022-10-14T18:16:48.975Z,19.61
2022-10-14T18:19:19.476Z,19.58
2022-10-14T18:21:46.549Z,19.55
2022-10-14T18:24:13.296Z,19.51
2022-10-14T18:26:40.918Z,19.48
2022-10-14T18:29:08.475Z,19.45
2022-10-14T18:31:35.625Z,19.44
2022-10-14T18:34:02.862Z,19.42
2022-10-14T18:36:31.026Z,19.38
2022-10-14T18:39:00.233Z,19.36
2022-10-14T18:41:27.716Z,19.32
2022-10-14T18:43:54.634Z,19.31
2022-10-14T18:46:22.954Z,19.30
2022-10-14T18:48:52.100Z,19.30
2022-10-14T18:51:21.357Z,19.28
2022-10-14T18:53:48.512Z,19.30
2022-10-14T18:56:18.029Z,19.28
2022-10-14T18:58:45.846Z,19.26
2022-10-14T19:01:15.440Z,19.21
2022-10-14T19:03:42.916Z,19.19
2022-10-14T19:06:12.056Z,19.17
2022-10-14T19:08:40.317Z,19.15
2022-10-14T19:11:09.584Z,19.11
2022-10-14T19:13:37.502Z,19.09
2022-10-14T19:16:06.618Z,19.06
2022-10-14T19:18:33.321Z,19.05
2022-10-14T19:21:05.073Z,19.05
2022-10-14T19:23:31.885Z,19.03
2022-10-14T19:26:00.883Z,19.00
2022-10-14T19:28:27.758Z,19.00
2022-10-14T19:30:54.474Z,18.99
2022-10-14T19:33:21.198Z,18.99
2022-10-14T19:36:00.682Z,18.98
2022-10-14T19:38:27.948Z,18.97
2022-10-14T19:40:58.834Z,18.97
2022-10-14T19:43:26.681Z,18.97
2022-10-14T19:45:53.720Z,18.97
2022-10-14T19:48:20.470Z,18.97
2022-10-14T19:50:47.286Z,18.97
2022-10-14T19:53:14.146Z,18.95
2022-10-14T19:55:40.953Z,18.95
2022-10-14T19:58:07.653Z,18.95
2022-10-14T20:00:35.321Z,18.94
2022-10-14T20:03:02.187Z,18.95
2022-10-14T20:05:29.085Z,18.95
2022-10-14T20:07:57.104Z,18.95
2022-10-14T20:10:23.827Z,18.93
2022-10-14T20:12:50.512Z,18.95
2022-10-14T20:15:17.198Z,18.95
2022-10-14T20:17:43.930Z,18.96
2022-10-14T20:20:11.028Z,18.95
2022-10-14T20:22:37.767Z,18.95
2022-10-14T20:25:04.726Z,18.95
2022-10-14T20:27:31.420Z,18.95
2022-10-14T20:29:58.474Z,18.96
2022-10-14T20:32:25.196Z,18.98
2022-10-14T20:34:51.884Z,18.98
2022-10-14T20:37:18.680Z,18.99
2022-10-14T20:39:45.382Z,18.99
2022-10-14T20:42:12.102Z,18.98
2022-10-14T20:44:38.973Z,18.97
2022-10-14T20:47:05.709Z,18.96
2022-10-14T20:49:32.492Z,18.97
2022-10-14T20:51:59.182Z,18.97
2022-10-14T20:54:25.879Z,18.98
2022-10-14T20:56:52.595Z,18.97
2022-10-14T20:59:19.282Z,18.98
2022-10-14T21:01:46.402Z,18.99
2022-10-14T21:04:13.203Z,18.99
2022-10-14T21:06:41.036Z,19.00
2022-10-14T21:09:08.474Z,18.99
2022-10-14T21:11:35.193Z,18.99
2022-10-14T21:14:01.904Z,18.99
2022-10-14T21:16:33.850Z,18.99
2022-10-14T21:19:06.505Z,18.99
2022-10-14T21:21:36.813Z,18.99
2022-10-14T21:24:03.972Z,19.00
2022-10-14T21:26:30.752Z,19.00
2022-10-14T21:28:57.515Z,18.99
2022-10-14T21:31:24.258Z,18.99
2022-10-14T21:33:55.647Z,19.00
2022-10-14T21:36:22.368Z,19.00
2022-10-14T21:38:49.150Z,19.02
2022-10-14T21:41:15.861Z,19.03
2022-10-14T21:43:42.702Z,19.03
2022-10-14T21:46:14.008Z,19.04
2022-10-14T21:48:41.840Z,19.06
2022-10-14T21:51:08.447Z,19.06
2022-10-14T21:53:35.551Z,19.07
2022-10-14T21:56:02.588Z,19.08
2022-10-14T21:58:29.489Z,19.08
2022-10-14T22:01:13.323Z,19.07
2022-10-14T22:03:40.383Z,19.08
2022-10-14T22:06:13.407Z,19.09
2022-10-14T22:08:42.772Z,19.09
2022-10-14T22:11:29.189Z,19.07
2022-10-14T22:13:57.683Z,19.08
2022-10-14T22:16:25.304Z,19.07
2022-10-14T22:18:53.561Z,19.07
2022-10-14T22:21:22.719Z,19.06
2022-10-14T22:23:50.025Z,19.06
2022-10-14T22:26:19.583Z,19.04
2022-10-14T22:28:46.813Z,19.04
2022-10-14T22:31:15.353Z,19.03
2022-10-14T22:33:42.483Z,19.04
2022-10-14T22:36:20.865Z,19.04
2022-10-14T22:38:51.465Z,19.05
2022-10-14T22:41:18.358Z,19.05
2022-10-14T22:43:46.992Z,19.05
2022-10-14T22:46:14.864Z,19.06
2022-10-14T22:48:41.701Z,19.07
2022-10-14T22:51:11.067Z,19.07
2022-10-14T22:53:38.997Z,19.08
2022-10-14T22:56:09.142Z,19.09
2022-10-14T22:58:36.160Z,19.08
2022-10-14T23:01:07.371Z,19.08
2022-10-14T23:03:34.735Z,19.07
2022-10-14T23:06:03.742Z,19.07
2022-10-14T23:08:30.889Z,19.08
2022-10-14T23:10:58.702Z,19.06
2022-10-14T23:13:25.926Z,19.07
2022-10-14T23:15:59.668Z,19.07
2022-10-14T23:18:27.585Z,19.07
2022-10-14T23:20:54.558Z,19.07
2022-10-14T23:23:21.316Z,19.08
2022-10-14T23:25:48.016Z,19.07
2022-10-14T23:28:14.755Z,19.07
2022-10-14T23:30:41.477Z,19.08
2022-10-14T23:33:10.755Z,19.07
2022-10-14T23:35:38.909Z,19.08
2022-10-14T23:38:05.675Z,19.07
2022-10-14T23:40:32.413Z,19.06
2022-10-14T23:42:59.133Z,19.06
2022-10-14T23:45:25.819Z,19.05
2022-10-14T23:47:52.510Z,19.05
2022-10-14T23:50:19.217Z,19.05
2022-10-14T23:52:45.977Z,19.04
2022-10-14T23:55:13.672Z,19.04
2022-10-14T23:57:41.092Z,19.06
